createdAt,value
2022-08-05T00:00:30.382Z,96
2022-08-05T00:01:35.765Z,94
2022-08-05T00:02:39.562Z,88
2022-08-05T00:03:47.992Z,90
2022-08-05T00:05:00.445Z,91
2022-08-05T00:06:22.245Z,95
2022-08-05T00:07:21.959Z,88
2022-08-05T00:08:26.447Z,95
2022-08-05T00:09:24.711Z,97
2022-08-05T00:11:48.627Z,94
2022-08-05T00:12:56.334Z,92
2022-08-05T00:13:56.787Z,89
2022-08-05T00:15:14.122Z,94
2022-08-05T00:16:12.958Z,94
2022-08-05T00:17:18.595Z,89
2022-08-05T00:18:28.801Z,94
2022-08-05T00:19:45.546Z,95
2022-08-05T00:20:43.489Z,96
2022-08-05T00:21:48.195Z,98
2022-08-05T00:22:56.072Z,112
2022-08-05T00:24:05.139Z,87
2022-08-05T00:25:03.002Z,89
2022-08-05T00:26:23.878Z,95
2022-08-05T00:27:43.554Z,108
2022-08-05T00:28:49.549Z,108
2022-08-05T00:29:53.934Z,92
2022-08-05T00:30:58.350Z,94
2022-08-05T00:32:10.801Z,97
2022-08-05T00:33:07.160Z,102
2022-08-05T00:34:42.821Z,112
2022-08-05T00:35:33.662Z,109
2022-08-05T00:37:09.611Z,102
2022-08-05T00:37:51.509Z,104
2022-08-05T00:38:49.346Z,114
2022-08-05T00:40:03.844Z,101
2022-08-05T00:41:14.290Z,123
2022-08-05T00:42:31.428Z,126
2022-08-05T00:43:41.700Z,111
2022-08-05T00:44:40.595Z,119
2022-08-05T00:45:54.150Z,115
2022-08-05T00:47:01.735Z,109
2022-08-05T00:48:05.278Z,110
2022-08-05T00:49:09.926Z,108
2022-08-05T00:50:14.343Z,109
2022-08-05T00:51:50.200Z,110
2022-08-05T00:52:30.454Z,111
2022-08-05T00:53:45.687Z,116
2022-08-05T00:54:43.363Z,110
2022-08-05T00:55:47.459Z,101
2022-08-05T00:56:55.984Z,105
2022-08-05T00:58:04.611Z,112
2022-08-05T00:59:08.271Z,128
2022-08-05T01:00:17.162Z,106
2022-08-05T01:01:41.986Z,105
2022-08-05T01:02:32.151Z,107
2022-08-05T01:03:40.212Z,103
2022-08-05T01:04:45.678Z,97
2022-08-05T01:05:50.168Z,98
2022-08-05T01:06:55.323Z,93
2022-08-05T01:08:29.934Z,96
2022-08-05T01:09:14.010Z,95
2022-08-05T01:10:21.042Z,90
2022-08-05T01:11:33.796Z,98
2022-08-05T01:12:34.358Z,106
2022-08-05T01:13:58.188Z,111
2022-08-05T01:14:51.535Z,99
2022-08-05T01:16:05.430Z,110
2022-08-05T01:17:09.870Z,114
2022-08-05T01:18:19.418Z,104
2022-08-05T01:19:30.333Z,114
2022-08-05T01:20:42.442Z,110
2022-08-05T01:21:57.006Z,110
2022-08-05T01:23:05.839Z,130
2022-08-05T01:24:17.266Z,140
2022-08-05T01:25:39.557Z,139
2022-08-05T01:26:43.258Z,138
2022-08-05T01:27:59.331Z,142
2022-08-05T01:29:16.546Z,127
2022-08-05T01:30:33.658Z,126
2022-08-05T01:31:32.082Z,116
2022-08-05T01:32:38.918Z,134
2022-08-05T01:33:43.518Z,129
2022-08-05T01:34:49.703Z,113
2022-08-05T01:35:59.610Z,118
2022-08-05T01:37:05.675Z,109
2022-08-05T01:38:25.057Z,103
2022-08-05T01:39:45.560Z,94
2022-08-05T01:40:27.856Z,115
2022-08-05T01:41:36.699Z,106
2022-08-05T01:42:41.043Z,108
2022-08-05T01:43:49.542Z,114
2022-08-05T01:44:54.595Z,115
2022-08-05T01:46:07.042Z,107
2022-08-05T01:47:06.756Z,117
2022-08-05T01:48:16.033Z,122
2022-08-05T01:50:00.072Z,117
2022-08-05T01:50:51.179Z,139
2022-08-05T01:51:51.011Z,148
2022-08-05T01:52:55.590Z,145
2022-08-05T01:54:00.001Z,143
2022-08-05T01:55:30.846Z,138
2022-08-05T01:58:08.365Z,156
2022-08-05T01:58:09.178Z,153
2022-08-05T01:58:47.718Z,154
2022-08-05T01:59:52.048Z,155
2022-08-05T02:01:00.506Z,154
2022-08-05T02:02:05.756Z,152
2022-08-05T02:03:24.687Z,151
2022-08-05T02:04:27.931Z,150
2022-08-05T02:05:34.054Z,151
2022-08-05T02:06:39.937Z,151
2022-08-05T02:07:56.364Z,148
2022-08-05T02:08:55.041Z,149
2022-08-05T02:10:37.422Z,158
2022-08-05T02:11:48.002Z,159
2022-08-05T02:12:56.722Z,157
2022-08-05T02:14:12.169Z,159
2022-08-05T02:15:19.919Z,152
2022-08-05T02:16:32.366Z,157
2022-08-05T02:18:29.005Z,154
2022-08-05T02:18:59.817Z,156
2022-08-05T02:20:04.630Z,152
2022-08-05T02:21:14.642Z,154
2022-08-05T02:22:26.054Z,153
2022-08-05T02:23:28.650Z,141
2022-08-05T02:24:35.905Z,154
2022-08-05T02:25:48.997Z,147
2022-08-05T02:26:53.759Z,142
2022-08-05T02:27:58.835Z,141
2022-08-05T02:28:59.113Z,136
2022-08-05T02:30:04.597Z,132
2022-08-05T02:31:14.390Z,123
2022-08-05T02:32:19.719Z,124
2022-08-05T02:33:24.265Z,118
2022-08-05T02:34:34.549Z,113
2022-08-05T02:35:45.049Z,107
2022-08-05T02:36:45.498Z,109
2022-08-05T02:38:05.305Z,109
2022-08-05T02:39:10.696Z,109
2022-08-05T02:40:15.357Z,104
2022-08-05T02:41:43.097Z,104
2022-08-05T02:42:52.584Z,98
2022-08-05T02:44:23.273Z,96
2022-08-05T02:45:28.489Z,87
2022-08-05T02:46:32.067Z,79
2022-08-05T02:48:07.139Z,74
2022-08-05T02:48:48.302Z,72
2022-08-05T02:49:57.616Z,71
2022-08-05T02:51:02.113Z,67
2022-08-05T02:52:06.525Z,69
2022-08-05T02:53:16.224Z,61
2022-08-05T02:54:34.650Z,60
2022-08-05T02:55:52.386Z,59
2022-08-05T02:56:36.801Z,53
2022-08-05T02:58:08.960Z,53
2022-08-05T02:58:51.324Z,52
2022-08-05T02:59:51.931Z,54
2022-08-05T03:00:56.833Z,54
2022-08-05T03:02:02.628Z,58
2022-08-05T03:03:11.626Z,59
2022-08-05T03:04:18.862Z,57
2022-08-05T03:06:52.790Z,61
2022-08-05T03:06:53.332Z,63
2022-08-05T03:07:40.743Z,66
2022-08-05T03:08:39.009Z,67
2022-08-05T03:09:51.576Z,66
2022-08-05T03:11:01.251Z,71
2022-08-05T03:11:59.737Z,67
2022-08-05T03:14:14.601Z,73
2022-08-05T03:15:20.831Z,81
2022-08-05T03:16:25.261Z,83
2022-08-05T03:18:44.230Z,84
2022-08-05T03:19:49.793Z,96
2022-08-05T03:20:54.045Z,91
2022-08-05T03:21:59.069Z,96
2022-08-05T03:23:08.133Z,95
2022-08-05T03:24:13.363Z,100
2022-08-05T03:25:31.515Z,101
2022-08-05T03:26:31.166Z,104
2022-08-05T03:27:29.709Z,109
2022-08-05T03:28:38.910Z,106
2022-08-05T03:29:45.025Z,106
2022-08-05T03:32:00.400Z,106
2022-08-05T03:33:00.682Z,106
2022-08-05T03:34:05.294Z,107
2022-08-05T03:35:09.737Z,108
2022-08-05T03:36:14.190Z,108
2022-08-05T03:37:19.880Z,106
2022-08-05T03:38:33.020Z,111
2022-08-05T03:39:38.278Z,109
2022-08-05T03:40:53.733Z,107
2022-08-05T03:42:02.949Z,106
2022-08-05T03:43:15.857Z,110
2022-08-05T03:44:13.513Z,111
2022-08-05T03:45:22.308Z,103
2022-08-05T03:46:36.682Z,103
2022-08-05T03:47:41.933Z,105
2022-08-05T03:48:48.537Z,102
2022-08-05T03:49:53.569Z,107
2022-08-05T03:50:59.200Z,111
2022-08-05T03:52:36.382Z,121
2022-08-05T03:54:58.781Z,110
2022-08-05T03:54:59.569Z,107
2022-08-05T03:55:51.499Z,110
2022-08-05T03:56:47.745Z,110
2022-08-05T03:57:52.454Z,110
2022-08-05T03:58:57.569Z,110
2022-08-05T04:00:01.857Z,110
2022-08-05T04:01:11.352Z,110
2022-08-05T04:02:34.801Z,110
2022-08-05T04:03:26.788Z,110
2022-08-05T04:04:28.401Z,120
2022-08-05T04:05:34.519Z,116
2022-08-05T04:06:38.578Z,112
2022-08-05T04:07:57.105Z,113
2022-08-05T04:08:48.553Z,117
2022-08-05T04:09:53.357Z,118
2022-08-05T04:11:00.051Z,122
2022-08-05T04:12:23.482Z,124
2022-08-05T04:13:11.945Z,125
2022-08-05T04:14:17.824Z,130
2022-08-05T04:15:24.391Z,125
2022-08-05T04:16:32.382Z,125
2022-08-05T04:17:36.560Z,125
2022-08-05T04:18:39.807Z,125
2022-08-05T04:19:44.161Z,125
2022-08-05T04:20:48.450Z,125
2022-08-05T04:22:05.392Z,125
2022-08-05T04:23:08.195Z,125
2022-08-05T04:24:19.067Z,125
2022-08-05T04:25:24.316Z,125
2022-08-05T04:26:32.510Z,125
2022-08-05T04:27:42.019Z,125
2022-08-05T04:28:47.131Z,125
2022-08-05T04:29:46.889Z,125
2022-08-05T04:30:51.278Z,125
2022-08-05T04:31:56.801Z,125
2022-08-05T04:33:00.549Z,125
2022-08-05T04:34:19.516Z,125
2022-08-05T04:35:13.546Z,125
2022-08-05T04:36:46.665Z,125
2022-08-05T04:37:21.640Z,125
2022-08-05T04:38:39.391Z,125
2022-08-05T04:39:30.705Z,125
2022-08-05T04:40:35.049Z,125
2022-08-05T04:41:40.157Z,125
2022-08-05T04:42:45.432Z,125
2022-08-05T04:43:52.108Z,125
2022-08-05T04:44:54.617Z,125
2022-08-05T04:45:58.945Z,125
2022-08-05T04:47:11.472Z,125
2022-08-05T04:48:27.747Z,125
2022-08-05T04:49:38.163Z,125
2022-08-05T04:51:02.105Z,125
2022-08-05T04:51:50.142Z,125
2022-08-05T04:53:00.402Z,125
2022-08-05T04:54:13.032Z,125
2022-08-05T04:55:17.636Z,125
2022-08-05T04:56:34.147Z,125
2022-08-05T04:57:28.440Z,125
2022-08-05T04:58:31.192Z,125
2022-08-05T04:59:36.763Z,125
2022-08-05T05:00:39.781Z,125
2022-08-05T05:02:06.660Z,125
2022-08-05T05:03:01.494Z,125
2022-08-05T05:04:11.586Z,125
2022-08-05T05:05:26.661Z,125
2022-08-05T05:06:35.714Z,120
2022-08-05T05:07:29.578Z,120
2022-08-05T05:08:31.803Z,120
2022-08-05T05:09:37.357Z,120
2022-08-05T05:10:40.553Z,120
2022-08-05T05:11:54.223Z,120
2022-08-05T05:13:55.227Z,120
2022-08-05T05:15:03.610Z,120
2022-08-05T05:16:19.626Z,120
2022-08-05T05:17:24.789Z,120
2022-08-05T05:18:28.808Z,120
2022-08-05T05:19:58.457Z,120
2022-08-05T05:21:03.866Z,120
2022-08-05T05:22:22.577Z,120
2022-08-05T05:23:19.668Z,120
2022-08-05T05:24:18.563Z,120
2022-08-05T05:25:32.526Z,120
2022-08-05T05:26:32.543Z,75
2022-08-05T05:27:41.886Z,51
2022-08-05T05:28:38.988Z,51
2022-08-05T05:30:03.216Z,51
2022-08-05T05:30:49.648Z,51
2022-08-05T05:31:53.187Z,51
2022-08-05T05:33:00.276Z,51
2022-08-05T05:34:03.257Z,51
2022-08-05T05:35:07.621Z,51
2022-08-05T05:36:11.917Z,51
2022-08-05T05:37:16.889Z,51
2022-08-05T05:38:22.334Z,51
2022-08-05T05:39:38.235Z,25
2022-08-05T05:40:48.002Z,29
2022-08-05T05:41:54.190Z,37
2022-08-05T05:42:51.976Z,42
2022-08-05T05:44:00.164Z,42
2022-08-05T05:45:03.011Z,42
2022-08-05T05:46:08.595Z,42
2022-08-05T05:47:21.929Z,42
2022-08-05T05:48:27.456Z,42
2022-08-05T05:49:31.708Z,42
2022-08-05T05:50:41.389Z,42
2022-08-05T05:51:49.793Z,42
2022-08-05T05:52:51.768Z,42
2022-08-05T05:53:58.463Z,42
2022-08-05T05:55:01.830Z,42
2022-08-05T05:56:08.870Z,42
2022-08-05T05:57:18.985Z,42
2022-08-05T05:58:20.829Z,42
2022-08-05T05:59:28.687Z,42
2022-08-05T06:00:35.965Z,42
2022-08-05T06:01:40.468Z,42
2022-08-05T06:02:45.980Z,42
2022-08-05T06:04:00.792Z,111
2022-08-05T06:05:10.309Z,105
2022-08-05T06:06:09.649Z,107
2022-08-05T06:07:14.013Z,107
2022-08-05T06:08:31.774Z,107
2022-08-05T06:09:49.150Z,107
2022-08-05T06:10:34.467Z,107
2022-08-05T06:11:34.707Z,107
2022-08-05T06:12:42.054Z,107
2022-08-05T06:13:50.359Z,107
2022-08-05T06:14:48.940Z,107
2022-08-05T06:16:28.095Z,107
2022-08-05T06:16:59.136Z,107
2022-08-05T06:18:07.005Z,107
2022-08-05T06:19:11.417Z,107
2022-08-05T06:20:18.762Z,107
2022-08-05T06:21:24.392Z,107
2022-08-05T06:22:29.945Z,107
2022-08-05T06:23:43.919Z,107
2022-08-05T06:24:46.723Z,107
2022-08-05T06:26:00.012Z,107
2022-08-05T06:26:53.224Z,107
2022-08-05T06:28:09.830Z,107
2022-08-05T06:29:06.410Z,107
2022-08-05T06:30:17.634Z,107
2022-08-05T06:31:21.695Z,107
2022-08-05T06:32:29.066Z,107
2022-08-05T06:33:33.217Z,107
2022-08-05T06:34:34.901Z,107
2022-08-05T06:36:03.313Z,107
2022-08-05T06:36:57.754Z,36
2022-08-05T06:37:55.733Z,32
2022-08-05T06:39:09.005Z,28
2022-08-05T06:40:14.098Z,29
2022-08-05T06:41:21.574Z,29
2022-08-05T06:42:25.872Z,30
2022-08-05T06:43:51.992Z,31
2022-08-05T06:44:38.262Z,31
2022-08-05T06:45:44.272Z,31
2022-08-05T06:46:51.014Z,31
2022-08-05T06:48:12.133Z,36
2022-08-05T06:48:59.843Z,25
2022-08-05T06:50:05.205Z,36
2022-08-05T06:51:12.103Z,36
2022-08-05T06:52:37.544Z,36
2022-08-05T06:53:22.759Z,35
2022-08-05T06:54:27.509Z,25
2022-08-05T06:55:36.550Z,29
2022-08-05T06:56:41.577Z,41
2022-08-05T06:58:04.050Z,41
2022-08-05T06:59:08.301Z,41
2022-08-05T07:00:11.825Z,41
2022-08-05T07:01:20.713Z,27
2022-08-05T07:02:44.332Z,25
2022-08-05T07:03:48.857Z,36
2022-08-05T07:09:04.614Z,36
2022-08-05T07:10:08.824Z,36
2022-08-05T07:11:15.173Z,36
2022-08-05T07:12:19.385Z,36
2022-08-05T07:13:57.333Z,36
2022-08-05T07:14:39.338Z,36
2022-08-05T07:16:00.719Z,36
2022-08-05T07:17:57.790Z,36
2022-08-05T07:19:08.785Z,36
2022-08-05T07:20:37.251Z,36
2022-08-05T07:21:39.945Z,36
2022-08-05T07:22:46.020Z,36
2022-08-05T07:24:01.187Z,36
2022-08-05T07:25:09.607Z,36
2022-08-05T07:26:22.824Z,36
2022-08-05T07:27:38.955Z,36
2022-08-05T07:28:43.372Z,36
2022-08-05T07:30:22.561Z,36
2022-08-05T07:31:04.986Z,36
2022-08-05T07:32:11.428Z,36
2022-08-05T07:33:17.294Z,36
2022-08-05T07:34:45.648Z,36
2022-08-05T07:36:19.724Z,36
2022-08-05T07:37:11.893Z,36
2022-08-05T07:38:26.593Z,36
2022-08-05T07:39:24.537Z,36
2022-08-05T07:40:32.024Z,36
2022-08-05T07:42:09.797Z,36
2022-08-05T07:42:59.060Z,36
2022-08-05T07:45:02.620Z,36
2022-08-05T07:47:46.621Z,36
2022-08-05T07:50:12.613Z,36
2022-08-05T07:52:28.113Z,36
2022-08-05T07:54:47.721Z,36
2022-08-05T07:57:59.016Z,36
2022-08-05T07:58:59.404Z,36
2022-08-05T08:00:15.704Z,36
2022-08-05T08:01:21.961Z,36
2022-08-05T08:02:26.282Z,36
2022-08-05T08:03:44.206Z,36
2022-08-05T08:04:37.770Z,36
2022-08-05T08:05:54.968Z,36
2022-08-05T08:07:07.261Z,36
2022-08-05T08:08:20.205Z,36
2022-08-05T08:09:33.624Z,36
2022-08-05T08:10:37.905Z,36
2022-08-05T08:12:06.362Z,36
2022-08-05T08:13:11.482Z,36
2022-08-05T08:14:18.389Z,36
2022-08-05T08:15:37.578Z,36
2022-08-05T08:16:34.242Z,36
2022-08-05T08:17:30.413Z,36
2022-08-05T08:18:34.571Z,36
2022-08-05T08:20:10.646Z,36
2022-08-05T08:21:00.867Z,36
2022-08-05T08:22:01.033Z,36
2022-08-05T08:24:00.575Z,36
2022-08-05T08:24:20.181Z,36
2022-08-05T08:25:26.608Z,36
2022-08-05T08:26:29.495Z,36
2022-08-05T08:27:35.872Z,36
2022-08-05T08:29:29.258Z,36
2022-08-05T08:30:20.346Z,36
2022-08-05T08:31:14.617Z,36
2022-08-05T08:32:18.627Z,36
2022-08-05T08:33:23.041Z,36
2022-08-05T08:34:30.029Z,36
2022-08-05T08:35:34.915Z,36
2022-08-05T08:36:47.425Z,36
2022-08-05T08:37:44.955Z,36
2022-08-05T08:38:53.058Z,36
2022-08-05T08:40:01.382Z,36
2022-08-05T08:41:06.200Z,36
2022-08-05T08:42:27.591Z,36
2022-08-05T08:45:01.643Z,36
2022-08-05T08:45:17.555Z,36
2022-08-05T08:45:46.681Z,36
2022-08-05T08:46:50.941Z,36
2022-08-05T08:48:06.561Z,36
2022-08-05T08:49:17.503Z,36
2022-08-05T08:51:03.161Z,36
2022-08-05T08:52:02.504Z,36
2022-08-05T08:52:58.484Z,36
2022-08-05T08:54:13.742Z,36
2022-08-05T08:55:19.441Z,36
2022-08-05T08:56:33.994Z,36
2022-08-05T08:57:42.222Z,36
2022-08-05T08:58:48.858Z,36
2022-08-05T08:59:52.492Z,36
2022-08-05T09:00:57.307Z,36
2022-08-05T09:02:02.236Z,36
2022-08-05T09:03:07.121Z,36
2022-08-05T09:04:15.780Z,36
2022-08-05T09:05:38.173Z,36
2022-08-05T09:06:36.254Z,36
2022-08-05T09:07:57.234Z,36
2022-08-05T09:08:55.008Z,36
2022-08-05T09:10:10.296Z,36
2022-08-05T09:11:15.700Z,36
2022-08-05T09:12:27.159Z,36
2022-08-05T09:13:25.472Z,102
2022-08-05T09:14:55.250Z,80
2022-08-05T09:15:53.603Z,73
2022-08-05T09:16:59.400Z,68
2022-08-05T09:18:13.350Z,68
2022-08-05T09:19:17.868Z,80
2022-08-05T09:20:36.816Z,47
2022-08-05T09:22:17.565Z,47
2022-08-05T09:22:51.773Z,47
2022-08-05T09:24:06.793Z,26
2022-08-05T09:25:13.623Z,36
2022-08-05T09:26:20.654Z,36
2022-08-05T09:28:03.462Z,36
2022-08-05T09:28:45.949Z,36
2022-08-05T09:29:52.813Z,54
2022-08-05T09:32:38.890Z,73
2022-08-05T09:32:42.537Z,62
2022-08-05T09:33:59.518Z,58
2022-08-05T09:35:06.608Z,50
2022-08-05T09:36:16.336Z,33
2022-08-05T09:38:13.208Z,26
2022-08-05T09:38:27.677Z,26
2022-08-05T09:39:45.318Z,26
2022-08-05T09:41:16.043Z,25
2022-08-05T09:42:23.767Z,33
2022-08-05T09:43:22.655Z,37
2022-08-05T09:44:31.111Z,36
2022-08-05T09:46:05.562Z,37
2022-08-05T09:46:50.127Z,43
2022-08-05T09:47:55.740Z,43
2022-08-05T09:49:07.406Z,51
2022-08-05T09:50:03.545Z,65
2022-08-05T09:51:15.094Z,68
2022-08-05T09:52:14.183Z,50
2022-08-05T09:53:26.284Z,35
2022-08-05T09:54:59.056Z,25
2022-08-05T09:56:13.652Z,53
2022-08-05T09:57:23.255Z,52
2022-08-05T09:58:43.444Z,52
2022-08-05T10:00:58.326Z,61
2022-08-05T10:02:02.643Z,61
2022-08-05T10:03:14.215Z,61
2022-08-05T10:04:33.799Z,54
2022-08-05T10:06:31.013Z,68
2022-08-05T10:08:11.327Z,65
2022-08-05T10:09:44.811Z,55
2022-08-05T10:10:56.872Z,66
2022-08-05T10:12:30.911Z,93
2022-08-05T10:13:44.247Z,104
2022-08-05T10:15:20.518Z,89
2022-08-05T10:16:57.236Z,75
2022-08-05T10:18:11.783Z,67
2022-08-05T10:19:31.992Z,43
2022-08-05T10:20:36.541Z,61
2022-08-05T10:21:41.648Z,57
2022-08-05T10:22:48.615Z,56
2022-08-05T10:24:11.805Z,67
2022-08-05T10:26:46.716Z,67
2022-08-05T10:28:10.003Z,67
2022-08-05T10:28:56.387Z,67
2022-08-05T10:30:41.736Z,99
2022-08-05T10:32:50.191Z,90
2022-08-05T10:32:51.416Z,79
2022-08-05T10:33:54.373Z,80
2022-08-05T10:34:58.087Z,85
2022-08-05T10:36:40.740Z,87
2022-08-05T10:37:45.915Z,75
2022-08-05T10:38:56.833Z,52
2022-08-05T10:40:27.882Z,35
2022-08-05T10:41:45.050Z,32
2022-08-05T10:42:47.751Z,32
2022-08-05T10:43:52.812Z,33
2022-08-05T10:45:47.983Z,87
2022-08-05T10:47:00.368Z,79
2022-08-05T10:48:30.480Z,88
2022-08-05T10:49:33.155Z,92
2022-08-05T10:50:36.375Z,99
2022-08-05T10:51:40.215Z,106
2022-08-05T10:52:49.681Z,106
2022-08-05T10:53:58.163Z,91
2022-08-05T10:55:01.881Z,117
2022-08-05T10:56:14.803Z,85
2022-08-05T10:57:14.319Z,64
2022-08-05T10:58:35.809Z,74
2022-08-05T11:00:02.292Z,69
2022-08-05T11:00:35.775Z,99
2022-08-05T11:01:55.728Z,102
2022-08-05T11:02:50.530Z,77
2022-08-05T11:05:03.796Z,47
2022-08-05T11:06:14.824Z,41
2022-08-05T11:07:13.007Z,27
2022-08-05T11:08:27.613Z,37
2022-08-05T11:09:24.297Z,45
2022-08-05T11:10:27.323Z,39
2022-08-05T11:11:33.133Z,38
2022-08-05T11:12:41.172Z,27
2022-08-05T11:13:54.715Z,33
2022-08-05T11:15:01.577Z,55
2022-08-05T11:16:05.923Z,74
2022-08-05T11:17:53.402Z,49
2022-08-05T11:18:26.071Z,53
2022-08-05T11:20:11.632Z,55
2022-08-05T11:20:59.219Z,81
2022-08-05T11:22:03.647Z,95
2022-08-05T11:23:13.559Z,87
2022-08-05T11:24:28.204Z,59
2022-08-05T11:26:03.846Z,65
2022-08-05T11:26:49.496Z,67
2022-08-05T11:27:51.559Z,93
2022-08-05T11:28:56.731Z,97
2022-08-05T11:30:01.209Z,109
2022-08-05T11:31:06.783Z,125
2022-08-05T11:32:13.635Z,126
2022-08-05T11:33:34.702Z,119
2022-08-05T11:34:47.692Z,88
2022-08-05T11:36:04.374Z,75
2022-08-05T11:36:56.865Z,73
2022-08-05T11:38:27.174Z,57
2022-08-05T11:39:06.258Z,36
2022-08-05T11:40:11.060Z,38
2022-08-05T11:41:36.956Z,43
2022-08-05T11:42:23.211Z,53
2022-08-05T11:43:58.543Z,55
2022-08-05T11:44:41.031Z,54
2022-08-05T11:46:14.804Z,44
2022-08-05T11:46:57.981Z,59
2022-08-05T11:47:54.647Z,66
2022-08-05T11:48:58.599Z,61
2022-08-05T11:50:04.251Z,50
2022-08-05T11:51:09.143Z,33
2022-08-05T11:52:14.024Z,32
2022-08-05T11:53:23.517Z,25
2022-08-05T11:54:32.963Z,49
2022-08-05T11:55:36.375Z,52
2022-08-05T11:56:40.546Z,63
2022-08-05T11:58:09.029Z,82
2022-08-05T11:58:52.863Z,82
2022-08-05T11:59:54.706Z,87
2022-08-05T12:00:59.098Z,104
2022-08-05T12:02:12.207Z,97
2022-08-05T12:03:14.706Z,80
2022-08-05T12:04:19.502Z,75
2022-08-05T12:05:28.663Z,65
2022-08-05T12:06:34.603Z,68
2022-08-05T12:08:04.025Z,69
2022-08-05T12:08:48.012Z,60
2022-08-05T12:09:53.851Z,60
2022-08-05T12:10:57.878Z,70
2022-08-05T12:12:02.586Z,73
2022-08-05T12:13:14.015Z,79
2022-08-05T12:14:13.039Z,60
2022-08-05T12:15:19.126Z,75
2022-08-05T12:16:25.628Z,74
2022-08-05T12:18:03.434Z,69
2022-08-05T12:18:38.781Z,82
2022-08-05T12:20:16.598Z,79
2022-08-05T12:20:44.536Z,71
2022-08-05T12:21:48.998Z,55
2022-08-05T12:22:54.087Z,41
2022-08-05T12:24:09.022Z,50
2022-08-05T12:25:14.174Z,44
2022-08-05T12:26:18.412Z,57
2022-08-05T12:27:25.256Z,51
2022-08-05T12:28:31.020Z,34
2022-08-05T12:29:38.068Z,39
2022-08-05T12:30:45.706Z,34
2022-08-05T12:31:48.249Z,25
2022-08-05T12:32:51.956Z,32
2022-08-05T12:33:59.442Z,34
2022-08-05T12:35:04.362Z,33
2022-08-05T12:36:09.686Z,41
2022-08-05T12:37:17.737Z,61
2022-08-05T12:38:18.775Z,68
2022-08-05T12:39:27.875Z,87
2022-08-05T12:40:30.801Z,102
2022-08-05T12:41:43.504Z,86
2022-08-05T12:42:41.927Z,94
2022-08-05T12:43:47.091Z,101
2022-08-05T12:44:54.631Z,119
2022-08-05T12:46:07.219Z,109
2022-08-05T12:47:13.561Z,103
2022-08-05T12:48:32.441Z,101
2022-08-05T12:50:02.853Z,101
2022-08-05T12:50:42.719Z,101
2022-08-05T12:52:11.560Z,101
2022-08-05T12:52:59.421Z,101
2022-08-05T12:54:04.165Z,120
2022-08-05T12:55:09.659Z,88
2022-08-05T12:56:24.561Z,78
2022-08-05T12:58:31.247Z,62
2022-08-05T12:58:51.112Z,68
2022-08-05T13:00:08.602Z,57
2022-08-05T13:01:59.583Z,67
2022-08-05T13:02:32.279Z,96
2022-08-05T13:03:51.503Z,98
2022-08-05T13:04:58.893Z,99
2022-08-05T13:06:05.576Z,81
2022-08-05T13:07:11.051Z,94
2022-08-05T13:08:21.603Z,78
2022-08-05T13:09:28.132Z,93
2022-08-05T13:11:02.561Z,72
2022-08-05T13:12:07.463Z,80
2022-08-05T13:23:30.454Z,76
2022-08-05T13:24:51.443Z,87
2022-08-05T13:25:58.761Z,65
2022-08-05T13:27:35.654Z,49
2022-08-05T13:33:07.766Z,61
2022-08-05T13:35:43.451Z,60
2022-08-05T13:37:09.766Z,69
2022-08-05T13:38:20.605Z,77
2022-08-05T13:40:14.790Z,61
2022-08-05T13:40:52.599Z,51
2022-08-05T13:44:46.340Z,28
2022-08-05T13:48:56.734Z,70
2022-08-05T13:50:08.486Z,85
2022-08-05T13:58:12.072Z,60
2022-08-05T14:32:54.841Z,91
2022-08-05T14:34:18.782Z,77
2022-08-05T14:41:48.463Z,72
2022-08-05T14:44:09.536Z,90
2022-08-05T14:47:58.672Z,123
2022-08-05T14:52:51.435Z,75
2022-08-05T14:56:26.117Z,61
2022-08-05T14:57:33.910Z,81
2022-08-05T17:24:57.325Z,101
2022-08-05T17:27:33.433Z,106
2022-08-05T17:32:45.099Z,101
2022-08-05T17:34:09.572Z,109
2022-08-05T17:36:40.174Z,123
2022-08-05T17:37:45.281Z,129
2022-08-05T17:38:44.761Z,127
2022-08-05T17:39:51.158Z,129
2022-08-05T17:40:55.284Z,129
2022-08-05T17:42:17.104Z,132
2022-08-05T17:43:07.677Z,138
2022-08-05T17:44:26.474Z,148
2022-08-05T17:45:29.672Z,152
2022-08-05T17:46:30.341Z,146
2022-08-05T17:47:37.553Z,143
2022-08-05T17:48:43.189Z,139
2022-08-05T17:49:51.934Z,146
2022-08-05T17:50:50.068Z,138
2022-08-05T17:51:54.245Z,138
2022-08-05T17:53:08.822Z,142
2022-08-05T17:54:23.213Z,135
2022-08-05T17:55:34.746Z,140
2022-08-05T17:56:33.378Z,138
2022-08-05T17:57:37.708Z,135
2022-08-05T17:58:42.632Z,134
2022-08-05T17:59:51.394Z,134
2022-08-05T18:00:52.956Z,137
2022-08-05T18:02:10.002Z,138
2022-08-05T18:04:04.322Z,141
2022-08-05T18:04:55.203Z,137
2022-08-05T18:06:04.558Z,139
2022-08-05T18:07:09.630Z,135
2022-08-05T18:08:14.652Z,136
2022-08-05T18:09:19.532Z,140
2022-08-05T18:10:24.128Z,138
2022-08-05T18:11:32.701Z,144
2022-08-05T18:12:33.220Z,146
2022-08-05T18:13:43.891Z,147
2022-08-05T18:14:42.153Z,151
2022-08-05T18:15:46.884Z,150
2022-08-05T18:16:52.315Z,147
2022-08-05T18:17:58.321Z,150
2022-08-05T18:19:00.752Z,143
2022-08-05T18:20:05.197Z,152
2022-08-05T18:21:13.172Z,146
2022-08-05T18:22:17.906Z,138
2022-08-05T18:23:21.784Z,139
2022-08-05T18:24:26.672Z,124
2022-08-05T18:25:32.854Z,125
2022-08-05T18:26:35.764Z,122
2022-08-05T18:27:52.131Z,126
2022-08-05T18:28:49.520Z,120
2022-08-05T18:29:54.636Z,120
2022-08-05T18:30:58.561Z,119
2022-08-05T18:32:03.354Z,120
2022-08-05T18:33:08.241Z,119
2022-08-05T18:34:21.636Z,117
2022-08-05T18:35:28.233Z,114
2022-08-05T18:36:29.990Z,117
2022-08-05T18:37:40.139Z,118
2022-08-05T18:38:40.728Z,111
2022-08-05T18:40:29.793Z,108
2022-08-05T18:41:51.165Z,118
2022-08-05T18:42:01.080Z,114
2022-08-05T18:42:59.545Z,121
2022-08-05T18:44:05.693Z,115
2022-08-05T18:45:09.674Z,123
2022-08-05T18:46:14.053Z,130
2022-08-05T18:47:18.832Z,122
2022-08-05T18:48:30.326Z,127
2022-08-05T18:49:30.275Z,114
2022-08-05T18:50:42.074Z,116
2022-08-05T18:52:02.569Z,114
2022-08-05T18:52:59.469Z,120
2022-08-05T18:54:04.053Z,123
2022-08-05T18:55:10.268Z,124
2022-08-05T18:56:13.140Z,125
2022-08-05T18:57:17.656Z,120
2022-08-05T18:58:27.179Z,127
2022-08-05T18:59:42.264Z,129
2022-08-05T19:00:30.756Z,127
2022-08-05T19:01:47.378Z,123
2022-08-05T19:02:39.942Z,126
2022-08-05T19:03:53.602Z,122
2022-08-05T19:04:54.641Z,123
2022-08-05T19:06:06.511Z,122
2022-08-05T19:07:04.084Z,118
2022-08-05T19:08:12.161Z,127
2022-08-05T19:09:13.509Z,119
2022-08-05T19:10:18.019Z,114
2022-08-05T19:11:28.158Z,119
2022-08-05T19:12:35.248Z,126
2022-08-05T19:13:40.632Z,125
2022-08-05T19:15:00.232Z,118
2022-08-05T19:15:58.602Z,118
2022-08-05T19:20:05.686Z,120
2022-08-05T19:21:11.645Z,113
2022-08-05T19:22:22.202Z,121
2022-08-05T19:23:22.349Z,119
2022-08-05T19:24:34.207Z,113
2022-08-05T19:25:32.620Z,112
2022-08-05T19:26:35.312Z,134
2022-08-05T19:27:39.609Z,144
2022-08-05T19:28:44.299Z,147
2022-08-05T19:29:52.853Z,140
2022-08-05T19:30:58.508Z,143
2022-08-05T19:32:08.726Z,144
2022-08-05T19:33:16.839Z,134
2022-08-05T19:34:18.577Z,130
2022-08-05T19:35:22.445Z,128
2022-08-05T19:36:29.593Z,134
2022-08-05T19:37:35.290Z,113
2022-08-05T19:38:38.271Z,114
2022-08-05T19:39:45.338Z,105
2022-08-05T19:40:47.999Z,106
2022-08-05T19:42:05.492Z,119
2022-08-05T19:45:00.059Z,142
2022-08-05T19:46:31.191Z,152
2022-08-05T19:47:37.313Z,148
2022-08-05T19:48:45.351Z,151
2022-08-05T19:49:50.424Z,128
2022-08-05T19:50:54.771Z,136
2022-08-05T19:52:06.398Z,134
2022-08-05T19:53:09.821Z,120
2022-08-05T19:54:17.747Z,117
2022-08-05T19:56:11.995Z,123
2022-08-05T19:56:32.759Z,113
2022-08-05T19:57:47.518Z,116
2022-08-05T19:58:43.147Z,130
2022-08-05T19:59:54.624Z,119
2022-08-05T20:00:54.329Z,129
2022-08-05T20:01:58.640Z,142
2022-08-05T20:03:08.503Z,135
2022-08-05T20:04:10.500Z,133
2022-08-05T20:05:16.297Z,131
2022-08-05T20:06:28.603Z,131
2022-08-05T20:07:47.570Z,141
2022-08-05T20:08:39.200Z,142
2022-08-05T20:09:54.323Z,140
2022-08-05T20:10:49.507Z,128
2022-08-05T20:12:03.960Z,126
2022-08-05T20:13:08.364Z,126
2022-08-05T20:14:14.760Z,131
2022-08-05T20:15:22.840Z,131